Terminal Aerodrome Forecast
Issued by NWS Paducah, KY

Home | Current Version | Previous Version | Graphics & Text | Print | Product List | Glossary On
Versions: 1 2 3 4 5 6 7 8 9 10 11 12 13 14 15
000
FTUS43 KPAH 290500
TAFEVV
TAF
KEVV 290520Z 2906/3006 00000KT P6SM SCT250
     FM290900 00000KT 5SM BR SCT250
     FM291500 18006KT P6SM SCT050
     FM300200 19004KT P6SM BKN100=

USA.gov is the U.S. government's official web portal to all federal, state and local government web resources and services.